Startpagina
METAR-TAF:

METAR-TAF

Vliegvelden :

Niamey, Niger

Luchthaven Diori Hamani

breedte: 13-29N, lengte: 002-10E, hoogte: 223 m

Actueel weer

Dit bericht is 1 uur en het 19 minuten geleden gemaakt, om 18:00 UTC
Wind 4 kt uit het oostnoordoosten
Temperatuur 33°C
Vochtigheid 14%
Druk 1011 hPa
Zicht: 6000 m

METAR: DRRN 211800Z 06004KT 6000 NSC 33/02 Q1011 TEMPO 4000 DU

Tijdstip: 20:19 (19:19 UTC)

Verwachting

Dit bericht is 2 uur en het 19 minuten geleden gemaakt, om 17:00 UTC
Verwachting geldig van 21 om 18 UTC tot 22 om 24 UTC
Wind 8 kt uit het oosten
Zicht 10 km of meer
geen wolken onder 1500 m en geen cumulonimbus
Kans 30% :
Tijdelijke
van 21 om 18 UTC tot 21 om 20 UTC
Zicht: 4500 m
verspreid stof
Tijdelijke
van 22 om 06 UTC tot 22 om 08 UTC
Zicht: 4000 m
verspreid stof

TAF: DRRN 211700Z 2118/2224 08008KT CAVOK PROB30 TEMPO 2118/2120 4500 DU TEMPO 2206/2208 4000 DU

Waarnemingen en weersverwachtingen van meer dan 4000 vliegvelden (METAR en TAF).

De beschikbare stations zijn de gele en rode punten op de kaart.

Ga met uw muis naar het station om de naam te zien.

Klik dan om waarnemingen en weersverwachtingen te zien.

kaart wijzigen: klik op de groene knoppen met een zwart kruis om in te zoomen, op de groene knop met een streepje om uit te zoomen of op de groene pijlen voor aangrenzende kaarten.


METAR-TAF: